sensor_id;sensor_type;location;lat;lon;timestamp;temperature;humidity
3980;DHT22;2004;52.452;13.120;2022-07-29T00:06:43;15.30;85.50
3980;DHT22;2004;52.452;13.120;2022-07-29T00:14:34;15.20;88.50
3980;DHT22;2004;52.452;13.120;2022-07-29T00:22:25;15.10;91.10
3980;DHT22;2004;52.452;13.120;2022-07-29T00:30:15;15.00;94.40
3980;DHT22;2004;52.452;13.120;2022-07-29T00:38:06;15.00;97.40
3980;DHT22;2004;52.452;13.120;2022-07-29T00:45:57;15.00;99.90
3980;DHT22;2004;52.452;13.120;2022-07-29T00:53:47;14.90;99.90
3980;DHT22;2004;52.452;13.120;2022-07-29T01:01:41;14.90;99.90
3980;DHT22;2004;52.452;13.120;2022-07-29T01:09:32;14.80;99.90
3980;DHT22;2004;52.452;13.120;2022-07-29T01:33:58;14.60;99.90
3980;DHT22;2004;52.452;13.120;2022-07-29T01:41:58;14.50;99.90
3980;DHT22;2004;52.452;13.120;2022-07-29T01:49:54;14.40;99.90
3980;DHT22;2004;52.452;13.120;2022-07-29T01:57:48;14.40;99.90
3980;DHT22;2004;52.452;13.120;2022-07-29T02:05:41;14.40;99.90
3980;DHT22;2004;52.452;13.120;2022-07-29T02:13:34;14.40;99.90
3980;DHT22;2004;52.452;13.120;2022-07-29T02:21:27;14.30;99.90
3980;DHT22;2004;52.452;13.120;2022-07-29T02:29:21;14.20;99.90
3980;DHT22;2004;52.452;13.120;2022-07-29T02:37:15;14.20;99.90
3980;DHT22;2004;52.452;13.120;2022-07-29T02:45:07;14.10;99.90
3980;DHT22;2004;52.452;13.120;2022-07-29T02:53:05;14.10;99.90
3980;DHT22;2004;52.452;13.120;2022-07-29T03:01:02;14.10;99.90
3980;DHT22;2004;52.452;13.120;2022-07-29T03:08:54;14.10;99.90
3980;DHT22;2004;52.452;13.120;2022-07-29T03:16:46;14.20;99.90
3980;DHT22;2004;52.452;13.120;2022-07-29T03:24:37;14.10;99.90
3980;DHT22;2004;52.452;13.120;2022-07-29T03:32:28;14.10;99.90
3980;DHT22;2004;52.452;13.120;2022-07-29T03:40:27;14.00;99.90
3980;DHT22;2004;52.452;13.120;2022-07-29T03:48:22;14.00;99.90
3980;DHT22;2004;52.452;13.120;2022-07-29T03:56:15;14.00;99.90
3980;DHT22;2004;52.452;13.120;2022-07-29T04:04:07;14.00;99.90
3980;DHT22;2004;52.452;13.120;2022-07-29T04:11:58;14.00;99.90
3980;DHT22;2004;52.452;13.120;2022-07-29T04:19:48;14.00;99.90
3980;DHT22;2004;52.452;13.120;2022-07-29T04:27:39;14.00;99.90
3980;DHT22;2004;52.452;13.120;2022-07-29T04:35:49;14.10;99.90
3980;DHT22;2004;52.452;13.120;2022-07-29T04:43:40;14.20;99.90
3980;DHT22;2004;52.452;13.120;2022-07-29T04:51:31;14.30;99.90
3980;DHT22;2004;52.452;13.120;2022-07-29T04:59:21;14.50;99.90
3980;DHT22;2004;52.452;13.120;2022-07-29T05:07:12;14.70;99.90
3980;DHT22;2004;52.452;13.120;2022-07-29T05:15:03;14.90;99.90
3980;DHT22;2004;52.452;13.120;2022-07-29T05:22:55;15.00;99.90
3980;DHT22;2004;52.452;13.120;2022-07-29T05:30:46;15.20;99.90
3980;DHT22;2004;52.452;13.120;2022-07-29T05:38:37;15.40;99.90
3980;DHT22;2004;52.452;13.120;2022-07-29T05:46:27;15.50;99.90
3980;DHT22;2004;52.452;13.120;2022-07-29T05:54:19;15.80;99.90
3980;DHT22;2004;52.452;13.120;2022-07-29T06:02:09;16.10;99.90
3980;DHT22;2004;52.452;13.120;2022-07-29T06:10:00;16.30;99.90
3980;DHT22;2004;52.452;13.120;2022-07-29T06:17:51;16.50;99.90
3980;DHT22;2004;52.452;13.120;2022-07-29T06:25:42;16.70;99.90
3980;DHT22;2004;52.452;13.120;2022-07-29T06:33:33;16.80;99.90
3980;DHT22;2004;52.452;13.120;2022-07-29T06:41:24;17.00;99.90
3980;DHT22;2004;52.452;13.120;2022-07-29T06:49:14;17.20;98.40
3980;DHT22;2004;52.452;13.120;2022-07-29T06:57:05;17.40;96.70
3980;DHT22;2004;52.452;13.120;2022-07-29T07:04:56;17.70;94.80
3980;DHT22;2004;52.452;13.120;2022-07-29T07:12:47;17.80;94.60
3980;DHT22;2004;52.452;13.120;2022-07-29T07:20:37;18.00;94.30
3980;DHT22;2004;52.452;13.120;2022-07-29T07:28:28;18.10;93.30
3980;DHT22;2004;52.452;13.120;2022-07-29T07:36:19;18.30;92.20
3980;DHT22;2004;52.452;13.120;2022-07-29T07:44:09;18.40;91.30
3980;DHT22;2004;52.452;13.120;2022-07-29T07:52:00;18.50;91.10
3980;DHT22;2004;52.452;13.120;2022-07-29T07:59:51;18.60;91.20
3980;DHT22;2004;52.452;13.120;2022-07-29T08:07:42;18.90;91.30
3980;DHT22;2004;52.452;13.120;2022-07-29T08:15:33;19.30;90.00
3980;DHT22;2004;52.452;13.120;2022-07-29T08:23:23;19.70;87.30
3980;DHT22;2004;52.452;13.120;2022-07-29T08:31:14;20.00;82.90
3980;DHT22;2004;52.452;13.120;2022-07-29T08:39:05;20.40;81.30
3980;DHT22;2004;52.452;13.120;2022-07-29T08:46:56;20.70;74.90
3980;DHT22;2004;52.452;13.120;2022-07-29T08:54:47;21.10;74.70
3980;DHT22;2004;52.452;13.120;2022-07-29T09:02:45;21.40;72.50
3980;DHT22;2004;52.452;13.120;2022-07-29T09:10:38;21.80;69.60
3980;DHT22;2004;52.452;13.120;2022-07-29T09:18:40;22.00;66.90
3980;DHT22;2004;52.452;13.120;2022-07-29T09:26:31;22.40;66.80
3980;DHT22;2004;52.452;13.120;2022-07-29T09:34:27;22.60;65.30
3980;DHT22;2004;52.452;13.120;2022-07-29T09:42:28;22.60;64.00
3980;DHT22;2004;52.452;13.120;2022-07-29T09:50:20;22.80;63.90
3980;DHT22;2004;52.452;13.120;2022-07-29T09:58:17;22.80;62.10
3980;DHT22;2004;52.452;13.120;2022-07-29T10:06:10;23.00;61.60
3980;DHT22;2004;52.452;13.120;2022-07-29T10:14:02;23.20;60.50
3980;DHT22;2004;52.452;13.120;2022-07-29T10:21:54;23.30;60.30
3980;DHT22;2004;52.452;13.120;2022-07-29T10:29:44;23.40;59.30
3980;DHT22;2004;52.452;13.120;2022-07-29T10:46:02;23.60;56.90
3980;DHT22;2004;52.452;13.120;2022-07-29T10:53:53;23.90;57.40
3980;DHT22;2004;52.452;13.120;2022-07-29T11:01:44;24.30;54.70
3980;DHT22;2004;52.452;13.120;2022-07-29T11:09:34;24.60;53.60
3980;DHT22;2004;52.452;13.120;2022-07-29T11:17:25;24.90;53.00
3980;DHT22;2004;52.452;13.120;2022-07-29T11:25:17;25.40;52.30
3980;DHT22;2004;52.452;13.120;2022-07-29T11:33:33;25.80;52.00
3980;DHT22;2004;52.452;13.120;2022-07-29T11:49:23;26.40;51.80
3980;DHT22;2004;52.452;13.120;2022-07-29T11:57:19;26.80;50.50
3980;DHT22;2004;52.452;13.120;2022-07-29T12:05:10;27.00;51.00
3980;DHT22;2004;52.452;13.120;2022-07-29T12:13:01;27.00;50.10
3980;DHT22;2004;52.452;13.120;2022-07-29T12:20:59;26.90;51.40
3980;DHT22;2004;52.452;13.120;2022-07-29T12:28:50;27.20;52.30
3980;DHT22;2004;52.452;13.120;2022-07-29T12:36:42;27.20;51.70
3980;DHT22;2004;52.452;13.120;2022-07-29T12:44:49;27.20;54.00
3980;DHT22;2004;52.452;13.120;2022-07-29T12:52:40;27.10;53.40
3980;DHT22;2004;52.452;13.120;2022-07-29T13:00:31;27.20;54.60
3980;DHT22;2004;52.452;13.120;2022-07-29T13:08:21;27.30;54.10
3980;DHT22;2004;52.452;13.120;2022-07-29T13:16:12;27.30;52.90
3980;DHT22;2004;52.452;13.120;2022-07-29T13:24:03;27.40;53.50
3980;DHT22;2004;52.452;13.120;2022-07-29T13:31:54;27.20;53.00
3980;DHT22;2004;52.452;13.120;2022-07-29T13:39:45;27.10;53.70
3980;DHT22;2004;52.452;13.120;2022-07-29T13:47:37;27.10;54.80
3980;DHT22;2004;52.452;13.120;2022-07-29T13:55:28;27.20;54.60
3980;DHT22;2004;52.452;13.120;2022-07-29T14:03:19;27.40;53.20
3980;DHT22;2004;52.452;13.120;2022-07-29T14:11:09;27.40;53.40
3980;DHT22;2004;52.452;13.120;2022-07-29T14:19:00;27.50;53.10
3980;DHT22;2004;52.452;13.120;2022-07-29T14:26:50;27.60;52.70
3980;DHT22;2004;52.452;13.120;2022-07-29T14:34:41;27.50;51.80
3980;DHT22;2004;52.452;13.120;2022-07-29T14:42:32;27.50;52.30
3980;DHT22;2004;52.452;13.120;2022-07-29T14:50:22;27.50;51.30
3980;DHT22;2004;52.452;13.120;2022-07-29T14:58:13;27.50;52.10
3980;DHT22;2004;52.452;13.120;2022-07-29T15:06:04;27.50;52.10
3980;DHT22;2004;52.452;13.120;2022-07-29T15:13:55;27.50;50.70
3980;DHT22;2004;52.452;13.120;2022-07-29T15:21:46;27.40;50.40
3980;DHT22;2004;52.452;13.120;2022-07-29T15:29:36;27.30;50.40
3980;DHT22;2004;52.452;13.120;2022-07-29T15:37:28;27.20;50.90
3980;DHT22;2004;52.452;13.120;2022-07-29T15:45:18;27.20;50.40
3980;DHT22;2004;52.452;13.120;2022-07-29T15:53:09;27.10;50.80
3980;DHT22;2004;52.452;13.120;2022-07-29T16:01:00;26.90;52.20
3980;DHT22;2004;52.452;13.120;2022-07-29T16:08:50;26.80;50.40
3980;DHT22;2004;52.452;13.120;2022-07-29T16:16:41;26.70;51.20
3980;DHT22;2004;52.452;13.120;2022-07-29T16:24:32;26.60;51.10
3980;DHT22;2004;52.452;13.120;2022-07-29T16:32:22;26.50;50.30
3980;DHT22;2004;52.452;13.120;2022-07-29T16:40:13;26.40;51.00
3980;DHT22;2004;52.452;13.120;2022-07-29T16:48:04;26.40;51.30
3980;DHT22;2004;52.452;13.120;2022-07-29T16:55:55;26.40;50.90
3980;DHT22;2004;52.452;13.120;2022-07-29T17:03:45;26.30;51.40
3980;DHT22;2004;52.452;13.120;2022-07-29T17:11:54;26.30;51.60
3980;DHT22;2004;52.452;13.120;2022-07-29T17:19:45;26.30;52.90
3980;DHT22;2004;52.452;13.120;2022-07-29T17:27:36;26.20;53.40
3980;DHT22;2004;52.452;13.120;2022-07-29T17:35:27;26.00;52.70
3980;DHT22;2004;52.452;13.120;2022-07-29T17:43:36;25.80;53.30
3980;DHT22;2004;52.452;13.120;2022-07-29T17:51:26;25.70;52.80
3980;DHT22;2004;52.452;13.120;2022-07-29T17:59:17;25.60;52.90
3980;DHT22;2004;52.452;13.120;2022-07-29T18:07:08;25.60;53.30
3980;DHT22;2004;52.452;13.120;2022-07-29T18:14:58;25.50;52.40
3980;DHT22;2004;52.452;13.120;2022-07-29T18:22:49;25.40;53.00
3980;DHT22;2004;52.452;13.120;2022-07-29T18:30:40;25.20;53.00
3980;DHT22;2004;52.452;13.120;2022-07-29T18:38:31;25.10;53.30
3980;DHT22;2004;52.452;13.120;2022-07-29T18:46:22;24.90;53.10
3980;DHT22;2004;52.452;13.120;2022-07-29T18:54:13;24.80;52.60
3980;DHT22;2004;52.452;13.120;2022-07-29T19:02:03;24.70;53.30
3980;DHT22;2004;52.452;13.120;2022-07-29T19:09:54;24.50;53.30
3980;DHT22;2004;52.452;13.120;2022-07-29T19:17:45;24.40;54.20
3980;DHT22;2004;52.452;13.120;2022-07-29T19:25:37;24.20;54.00
3980;DHT22;2004;52.452;13.120;2022-07-29T19:33:28;24.10;54.00
3980;DHT22;2004;52.452;13.120;2022-07-29T19:41:18;24.00;54.50
3980;DHT22;2004;52.452;13.120;2022-07-29T19:49:09;23.90;54.20
3980;DHT22;2004;52.452;13.120;2022-07-29T19:57:00;23.80;54.00
3980;DHT22;2004;52.452;13.120;2022-07-29T20:04:50;23.70;54.30
3980;DHT22;2004;52.452;13.120;2022-07-29T20:12:41;23.50;54.70
3980;DHT22;2004;52.452;13.120;2022-07-29T20:20:32;23.40;54.50
3980;DHT22;2004;52.452;13.120;2022-07-29T20:28:22;23.40;54.60
3980;DHT22;2004;52.452;13.120;2022-07-29T20:36:13;23.30;55.30
3980;DHT22;2004;52.452;13.120;2022-07-29T20:44:04;23.20;55.30
3980;DHT22;2004;52.452;13.120;2022-07-29T20:51:54;23.10;55.30
3980;DHT22;2004;52.452;13.120;2022-07-29T20:59:45;23.00;55.40
3980;DHT22;2004;52.452;13.120;2022-07-29T21:07:36;22.90;55.50
3980;DHT22;2004;52.452;13.120;2022-07-29T21:15:26;22.80;56.60
3980;DHT22;2004;52.452;13.120;2022-07-29T21:23:18;22.70;56.70
3980;DHT22;2004;52.452;13.120;2022-07-29T21:31:13;22.60;56.10
3980;DHT22;2004;52.452;13.120;2022-07-29T21:39:05;22.50;57.50
3980;DHT22;2004;52.452;13.120;2022-07-29T21:46:56;22.30;57.60
3980;DHT22;2004;52.452;13.120;2022-07-29T21:54:46;22.20;58.80
3980;DHT22;2004;52.452;13.120;2022-07-29T22:02:37;22.10;59.10
3980;DHT22;2004;52.452;13.120;2022-07-29T22:10:29;22.00;58.80
3980;DHT22;2004;52.452;13.120;2022-07-29T22:18:20;21.90;57.90
3980;DHT22;2004;52.452;13.120;2022-07-29T22:26:10;21.80;59.00
3980;DHT22;2004;52.452;13.120;2022-07-29T22:34:01;21.70;59.20
3980;DHT22;2004;52.452;13.120;2022-07-29T22:41:52;21.60;59.10
3980;DHT22;2004;52.452;13.120;2022-07-29T22:49:42;21.50;59.30
3980;DHT22;2004;52.452;13.120;2022-07-29T22:57:33;21.50;59.80
3980;DHT22;2004;52.452;13.120;2022-07-29T23:05:24;21.40;59.50
3980;DHT22;2004;52.452;13.120;2022-07-29T23:13:15;21.30;60.20
3980;DHT22;2004;52.452;13.120;2022-07-29T23:21:06;21.30;60.80
3980;DHT22;2004;52.452;13.120;2022-07-29T23:28:56;21.30;59.90
3980;DHT22;2004;52.452;13.120;2022-07-29T23:36:47;21.20;59.90
3980;DHT22;2004;52.452;13.120;2022-07-29T23:44:38;21.10;61.40
3980;DHT22;2004;52.452;13.120;2022-07-29T23:52:28;21.00;60.80
